Time;durP1;ratioP1;P1;durP2;ratioP2;P2;SDS_P1;SDS_P2;PMS_P1;PMS_P2;Temp;Humidity;BMP_temperature;BMP_pressure;BME280_temperature;BME280_humidity;BME280_pressure;Samples;Min_cycle;Max_cycle;Signal;HPM_P1;HPM_P2
2022/04/30 00:02:11;;;;;;;0.60;0.55;;;;;;;10.25;80.74;101969.91;5110157;28;20372;-67
2022/04/30 00:04:41;;;;;;;0.60;0.50;;;;;;;10.25;80.48;101965.31;5110259;28;20038;-68
2022/04/30 00:07:08;;;;;;;2.50;0.98;;;;;;;10.18;80.79;101972.31;5109235;28;20062;-67
2022/04/30 00:09:34;;;;;;;1.65;1.00;;;;;;;10.20;80.77;101970.84;5110531;28;20389;-68
2022/04/30 00:12:00;;;;;;;0.47;0.47;;;;;;;10.14;80.83;101972.16;5110384;28;20046;-68
2022/04/30 00:14:27;;;;;;;2.90;0.85;;;;;;;10.09;80.85;101960.72;5110622;28;20396;-67
2022/04/30 00:16:53;;;;;;;0.65;0.65;;;;;;;10.09;80.89;101958.81;5102642;28;20047;-68
2022/04/30 00:19:20;;;;;;;0.60;0.60;;;;;;;10.09;81.28;101953.44;5109883;28;20047;-67
2022/04/30 00:21:46;;;;;;;1.35;0.90;;;;;;;10.04;81.58;101951.69;5110351;28;20475;-68
2022/04/30 00:24:11;;;;;;;1.25;0.90;;;;;;;10.00;81.93;101950.78;5086821;28;20028;-68
2022/04/30 00:26:37;;;;;;;2.05;0.95;;;;;;;9.97;81.88;101945.22;5087597;28;20526;-69
2022/04/30 00:29:03;;;;;;;0.93;0.82;;;;;;;9.94;81.88;101945.88;5091262;28;20508;-68
2022/04/30 00:31:28;;;;;;;0.45;0.45;;;;;;;9.91;81.99;101949.19;5106470;28;20037;-67
2022/04/30 00:33:55;;;;;;;1.48;1.08;;;;;;;9.90;82.36;101944.91;5103496;28;20163;-68
2022/04/30 00:36:21;;;;;;;0.55;0.55;;;;;;;9.84;82.60;101944.28;5106446;28;20028;-68
2022/04/30 00:38:47;;;;;;;0.80;0.80;;;;;;;9.84;82.36;101930.03;5104459;28;20053;-67
2022/04/30 00:41:12;;;;;;;1.08;0.57;;;;;;;9.81;82.33;101934.16;5089235;28;20524;-68
2022/04/30 00:43:49;;;;;;;1.63;1.05;;;;;;;9.77;82.27;101930.53;5108320;28;20019;-69
2022/04/30 00:46:15;;;;;;;0.50;0.43;;;;;;;9.76;82.37;101922.75;5098997;28;20114;-68
2022/04/30 00:48:42;;;;;;;0.63;0.63;;;;;;;9.69;82.43;101922.47;5094583;28;20082;-70
2022/04/30 00:51:09;;;;;;;0.52;0.50;;;;;;;9.71;82.68;101926.41;5073348;28;20070;-68
2022/04/30 00:53:38;;;;;;;1.08;0.82;;;;;;;9.72;82.37;101921.81;5096766;28;20028;-68
2022/04/30 00:56:06;;;;;;;9.35;1.02;;;;;;;9.71;82.97;101922.94;5096909;28;20050;-67
2022/04/30 00:58:34;;;;;;;1.42;1.15;;;;;;;9.66;83.28;101923.06;5104311;28;20044;-68
2022/04/30 01:01:01;;;;;;;1.67;1.05;;;;;;;9.61;83.56;101923.25;5109868;28;20035;-68
2022/04/30 01:03:45;;;;;;;1.80;1.10;;;;;;;9.59;83.47;101920.09;5100871;28;20039;-67
2022/04/30 01:06:12;;;;;;;1.35;0.70;;;;;;;9.60;83.69;101916.31;5110405;28;20032;-67
2022/04/30 01:08:38;;;;;;;2.08;1.10;;;;;;;9.56;83.51;101912.66;5091193;28;20051;-67
2022/04/30 01:11:04;;;;;;;1.50;0.68;;;;;;;9.53;84.06;101918.66;5108988;28;20027;-68
2022/04/30 01:13:35;;;;;;;0.73;0.57;;;;;;;9.50;83.96;101912.03;5105695;28;20118;-68
2022/04/30 01:16:06;;;;;;;1.50;1.10;;;;;;;9.49;84.38;101915.81;5103987;28;20032;-68
2022/04/30 01:18:36;;;;;;;1.92;0.93;;;;;;;9.46;84.01;101908.38;5082683;28;20075;-68
2022/04/30 01:21:07;;;;;;;1.52;1.02;;;;;;;9.49;83.89;101913.13;5109371;28;20039;-69
2022/04/30 01:23:34;;;;;;;0.65;0.65;;;;;;;9.46;83.93;101912.97;5108601;28;20483;-67
2022/04/30 01:26:04;;;;;;;2.47;1.33;;;;;;;9.41;83.86;101918.47;5104846;28;20089;-67
2022/04/30 01:28:29;;;;;;;1.83;1.35;;;;;;;9.33;83.90;101905.84;5109066;28;20114;-68
2022/04/30 01:30:55;;;;;;;1.50;0.60;;;;;;;9.23;84.13;101903.47;5109570;28;20118;-69
2022/04/30 01:38:49;;;;;;;1.23;0.98;;;;;;;9.11;83.79;101901.38;5103252;28;20107;-68
2022/04/30 01:41:15;;;;;;;2.00;0.85;;;;;;;9.05;83.58;101892.69;5108829;28;20153;-69
2022/04/30 01:43:43;;;;;;;0.80;0.80;;;;;;;9.00;83.84;101900.88;5109561;28;20034;-70
2022/04/30 01:46:09;;;;;;;1.48;0.85;;;;;;;8.98;84.07;101897.72;5092192;28;20024;-69
2022/04/30 01:48:35;;;;;;;1.00;0.70;;;;;;;8.97;83.80;101895.34;5112485;28;20514;-68
2022/04/30 01:51:00;;;;;;;1.20;0.80;;;;;;;8.95;83.59;101898.34;5113525;28;20038;-69
2022/04/30 01:53:26;;;;;;;1.98;0.93;;;;;;;8.89;83.98;101886.16;5112673;28;20031;-69
2022/04/30 01:55:51;;;;;;;0.88;0.63;;;;;;;8.80;84.00;101884.56;5106726;28;20039;-69
2022/04/30 01:58:26;;;;;;;1.95;0.95;;;;;;;8.78;84.19;101881.41;5093522;28;20644;-68
2022/04/30 02:00:53;;;;;;;1.30;0.65;;;;;;;8.79;84.00;101886.44;5112935;28;20059;-68
2022/04/30 02:03:18;;;;;;;0.68;0.60;;;;;;;8.75;84.37;101880.13;5108308;28;20036;-69
2022/04/30 02:05:44;;;;;;;1.50;1.10;;;;;;;8.74;84.48;101875.06;5112955;28;20065;-69
2022/04/30 02:08:17;;;;;;;0.88;0.77;;;;;;;8.75;84.65;101876.66;5111827;28;20039;-68
2022/04/30 02:10:42;;;;;;;0.70;0.70;;;;;;;8.77;84.57;101877.13;5094686;28;20020;-69
2022/04/30 02:13:10;;;;;;;1.40;1.10;;;;;;;8.72;84.50;101867.31;5107167;28;20113;-68
2022/04/30 02:15:43;;;;;;;1.48;0.80;;;;;;;8.68;84.78;101869.06;5113076;28;20043;-69
2022/04/30 02:18:15;;;;;;;1.67;1.25;;;;;;;8.60;85.07;101863.63;5112090;28;20046;-68
2022/04/30 02:20:43;;;;;;;1.20;0.65;;;;;;;8.63;85.33;101871.09;5106734;28;20122;-68
2022/04/30 02:23:10;;;;;;;4.07;0.73;;;;;;;8.68;85.28;101861.00;5112774;28;20027;-68
2022/04/30 02:25:36;;;;;;;0.95;0.73;;;;;;;8.62;85.64;101856.88;5113018;28;20115;-69
2022/04/30 02:28:05;;;;;;;1.25;0.75;;;;;;;8.69;85.99;101862.56;5112666;28;20039;-68
2022/04/30 02:30:35;;;;;;;2.25;1.13;;;;;;;8.68;85.96;101852.94;5103859;28;20031;-70
2022/04/30 02:33:10;;;;;;;1.25;0.77;;;;;;;8.65;86.38;101860.84;5103273;28;20034;-69
2022/04/30 02:35:37;;;;;;;2.58;1.23;;;;;;;8.65;86.51;101850.84;5086364;28;20038;-68
2022/04/30 02:38:06;;;;;;;1.33;0.63;;;;;;;8.61;86.83;101857.97;5090667;28;20038;-70
2022/04/30 02:40:34;;;;;;;1.23;0.80;;;;;;;8.64;86.81;101860.03;5107494;28;20093;-68
2022/04/30 02:43:06;;;;;;;1.38;1.23;;;;;;;8.62;86.71;101845.31;5112718;28;20379;-68
2022/04/30 02:45:31;;;;;;;;;;;;;;;8.62;86.87;101850.69;5112934;28;20036;-69
2022/04/30 02:47:56;;;;;;;0.38;0.38;;;;;;;8.57;87.08;101848.16;5108094;28;20406;-69
2022/04/30 02:50:23;;;;;;;1.23;1.13;;;;;;;8.53;87.00;101852.56;5090189;28;20027;-68
2022/04/30 02:52:50;;;;;;;0.68;0.57;;;;;;;8.49;87.35;101848.94;5106022;28;20464;-68
2022/04/30 02:55:16;;;;;;;0.77;0.75;;;;;;;8.41;87.20;101839.75;5108963;28;20118;-68
2022/04/30 03:00:32;;;;;;;6.20;1.30;;;;;;;8.36;87.33;101828.38;5111433;28;20415;-69
2022/04/30 03:03:19;;;;;;;1.80;1.33;;;;;;;8.34;87.27;101833.25;5073046;28;20124;-68
2022/04/30 03:05:47;;;;;;;3.10;1.98;;;;;;;8.30;87.15;101837.66;5104882;28;20035;-68
2022/04/30 03:08:18;;;;;;;2.40;1.45;;;;;;;8.27;87.17;101827.53;5102232;28;20031;-68
2022/04/30 03:10:44;;;;;;;;;;;;;;;8.28;87.15;101831.81;5112101;28;20024;-68
2022/04/30 03:13:10;;;;;;;2.70;1.10;;;;;;;8.23;87.20;101822.75;5106846;28;19922;-68
2022/04/30 03:15:39;;;;;;;1.65;0.50;;;;;;;8.25;87.22;101824.34;5111938;28;20032;-69
2022/04/30 03:23:37;;;;;;;1.95;0.68;;;;;;;8.18;87.73;101816.75;5111425;28;20059;-68
2022/04/30 03:26:10;;;;;;;1.67;0.63;;;;;;;8.12;87.68;101817.97;5093552;28;20042;-68
2022/04/30 03:28:39;;;;;;;1.58;1.00;;;;;;;8.12;87.66;101815.28;5108479;28;20114;-68
2022/04/30 03:31:10;;;;;;;1.08;1.00;;;;;;;8.10;87.87;101812.13;5111731;28;20499;-68
2022/04/30 03:33:36;;;;;;;1.48;1.13;;;;;;;8.09;87.70;101819.38;5110932;28;20035;-68
2022/04/30 03:36:02;;;;;;;2.97;0.85;;;;;;;8.07;87.49;101812.75;5106470;28;20122;-68
2022/04/30 03:38:28;;;;;;;7.93;1.58;;;;;;;8.06;87.14;101811.16;5108098;28;20041;-69
2022/04/30 03:40:54;;;;;;;2.28;0.80;;;;;;;8.01;87.70;101813.97;5110722;28;20110;-68
2022/04/30 03:43:19;;;;;;;0.63;0.63;;;;;;;7.98;87.30;101803.84;5111243;28;20028;-68
2022/04/30 03:45:46;;;;;;;5.95;1.08;;;;;;;7.98;87.14;101819.94;5105886;28;20389;-67
2022/04/30 03:48:12;;;;;;;1.38;0.77;;;;;;;7.98;87.29;101817.25;5091935;28;20031;-68
2022/04/30 03:50:38;;;;;;;2.90;1.77;;;;;;;7.94;87.62;101803.69;5107379;28;20034;-68
2022/04/30 03:53:04;;;;;;;1.67;1.00;;;;;;;7.90;87.63;101810.75;5102324;28;20403;-68
2022/04/30 03:55:29;;;;;;;1.55;0.98;;;;;;;7.89;87.70;101816.44;5108730;28;20047;-68
2022/04/30 03:57:55;;;;;;;0.85;0.85;;;;;;;7.86;87.36;101815.16;5109723;28;20028;-68
2022/04/30 04:00:21;;;;;;;3.95;1.40;;;;;;;7.86;87.62;101815.16;5109466;28;20027;-69
2022/04/30 04:02:46;;;;;;;4.05;1.52;;;;;;;7.85;87.89;101810.91;5107869;28;20030;-68
2022/04/30 04:05:12;;;;;;;1.60;1.50;;;;;;;7.86;87.86;101817.84;5109342;28;20035;-68
2022/04/30 04:07:42;;;;;;;1.48;0.88;;;;;;;7.87;88.05;101818.63;5090538;28;20077;-68
2022/04/30 04:10:09;;;;;;;0.95;0.70;;;;;;;7.90;88.57;101823.38;5110909;28;20032;-69
2022/04/30 04:12:41;;;;;;;1.30;0.93;;;;;;;7.91;88.52;101825.78;5109283;28;20518;-70
2022/04/30 04:17:53;;;;;;;2.25;1.23;;;;;;;7.98;88.46;101825.31;5095567;28;20070;-68
2022/04/30 04:20:22;;;;;;;0.75;0.75;;;;;;;7.98;88.53;101819.94;5106992;28;20076;-68
2022/04/30 04:22:47;;;;;;;1.88;1.08;;;;;;;8.04;88.86;101821.41;5109530;28;20019;-69
2022/04/30 04:27:58;;;;;;;0.65;0.65;;;;;;;8.16;89.77;101827.00;5104387;28;20381;-68
2022/04/30 04:30:26;;;;;;;0.80;0.65;;;;;;;8.18;90.42;101835.53;5110729;28;20070;-69
2022/04/30 04:32:53;;;;;;;3.25;0.90;;;;;;;8.22;90.72;101831.13;5110558;28;20077;-68
2022/04/30 04:35:18;;;;;;;1.25;0.77;;;;;;;8.30;90.54;101832.28;5108000;28;20491;-68
2022/04/30 04:37:44;;;;;;;2.45;1.17;;;;;;;8.36;90.74;101829.16;5109404;28;20023;-68
2022/04/30 04:40:11;;;;;;;2.03;1.35;;;;;;;8.42;90.79;101832.50;5110665;28;20512;-68
2022/04/30 04:42:42;;;;;;;2.60;1.27;;;;;;;8.46;91.06;101825.41;5110228;28;20032;-70
2022/04/30 04:45:09;;;;;;;1.38;1.25;;;;;;;8.46;91.61;101833.47;5105163;28;20028;-68
2022/04/30 04:47:36;;;;;;;1.75;1.25;;;;;;;8.50;91.72;101826.34;5098761;28;20058;-69
2022/04/30 04:50:03;;;;;;;3.10;1.52;;;;;;;8.53;92.09;101826.53;5088170;28;20574;-68
2022/04/30 04:52:29;;;;;;;1.30;1.00;;;;;;;8.58;92.43;101831.75;5109911;28;20027;-68
2022/04/30 04:54:54;;;;;;;1.35;1.25;;;;;;;8.65;92.29;101824.00;5101096;28;20096;-68
2022/04/30 04:57:19;;;;;;;2.10;0.98;;;;;;;8.67;92.59;101832.53;5107500;28;20040;-68
2022/04/30 04:59:45;;;;;;;1.00;0.90;;;;;;;8.65;93.20;101828.63;5108344;28;20034;-68
2022/04/30 05:02:10;;;;;;;2.83;1.55;;;;;;;8.74;93.05;101838.28;5099679;28;20028;-68
2022/04/30 05:04:36;;;;;;;1.42;0.95;;;;;;;8.79;92.81;101835.41;5109070;28;20027;-68
2022/04/30 05:07:02;;;;;;;1.48;0.57;;;;;;;8.82;93.18;101839.38;5109910;28;20535;-68
2022/04/30 05:09:27;;;;;;;1.15;0.90;;;;;;;8.92;92.27;101828.34;5109153;28;20499;-70
2022/04/30 05:11:54;;;;;;;1.83;1.20;;;;;;;8.95;92.75;101833.09;5082661;28;20071;-69
2022/04/30 05:14:19;;;;;;;2.10;1.52;;;;;;;9.03;93.13;101835.00;5107428;28;20480;-69
2022/04/30 05:16:44;;;;;;;1.33;0.82;;;;;;;9.08;92.52;101843.69;5109969;28;20040;-68
2022/04/30 05:19:10;;;;;;;2.30;0.93;;;;;;;9.11;92.79;101842.28;5102891;28;20064;-69
2022/04/30 05:21:35;;;;;;;1.50;1.20;;;;;;;9.20;92.59;101842.25;5105597;28;20529;-69
2022/04/30 05:24:01;;;;;;;3.10;1.25;;;;;;;9.39;92.42;101842.75;5109587;28;20034;-69
2022/04/30 05:26:26;;;;;;;1.13;0.77;;;;;;;9.85;91.25;101840.94;5114274;28;20473;-68
2022/04/30 05:28:52;;;;;;;3.05;1.38;;;;;;;10.57;89.32;101835.47;5110201;28;20039;-68
2022/04/30 05:31:18;;;;;;;1.50;1.13;;;;;;;11.33;85.86;101840.66;5110782;28;20645;-68
2022/04/30 05:33:43;;;;;;;2.30;1.23;;;;;;;11.99;82.16;101842.28;5113470;28;20027;-69
2022/04/30 05:36:09;;;;;;;1.98;0.90;;;;;;;12.37;79.58;101845.47;5114133;28;20076;-68
2022/04/30 05:38:35;;;;;;;2.53;1.30;;;;;;;12.48;77.15;101843.91;5103650;28;20547;-69
2022/04/30 05:41:01;;;;;;;1.10;1.00;;;;;;;12.71;75.89;101857.75;5113891;28;20403;-69
2022/04/30 05:43:26;;;;;;;1.38;1.27;;;;;;;12.99;74.18;101847.03;5113158;28;20047;-68
2022/04/30 05:45:52;;;;;;;1.85;1.40;;;;;;;13.14;72.88;101854.44;5112651;28;20040;-69
2022/04/30 05:48:17;;;;;;;1.38;0.98;;;;;;;13.57;70.59;101857.22;5108828;28;20043;-68
2022/04/30 05:50:43;;;;;;;2.10;0.98;;;;;;;13.72;69.50;101858.41;5102713;28;20488;-69
2022/04/30 05:53:08;;;;;;;1.67;0.50;;;;;;;13.99;68.58;101852.97;5105251;28;20119;-69
2022/04/30 05:55:34;;;;;;;1.50;0.98;;;;;;;14.33;66.79;101854.22;5100928;28;20373;-67
2022/04/30 05:57:59;;;;;;;2.70;0.90;;;;;;;14.57;64.23;101856.75;5107047;28;20035;-67
2022/04/30 06:00:25;;;;;;;8.38;1.25;;;;;;;14.58;63.59;101866.44;5108983;28;20036;-68
2022/04/30 06:02:51;;;;;;;2.10;0.98;;;;;;;14.58;63.91;101855.59;5091906;28;20035;-68
2022/04/30 06:05:16;;;;;;;1.10;1.00;;;;;;;14.43;64.56;101859.09;5110408;28;20484;-69
2022/04/30 06:07:42;;;;;;;1.02;0.93;;;;;;;14.60;64.51;101861.44;5107793;28;20023;-67
2022/04/30 06:10:08;;;;;;;0.50;0.47;;;;;;;14.70;62.32;101865.53;5102634;28;20047;-67
2022/04/30 06:12:36;;;;;;;0.63;0.63;;;;;;;14.60;63.34;101858.75;5085680;28;20032;-68
2022/04/30 06:15:03;;;;;;;0.52;0.52;;;;;;;14.48;63.26;101869.69;5105088;28;20032;-67
2022/04/30 06:17:28;;;;;;;1.40;0.80;;;;;;;14.48;64.25;101865.03;5104312;28;20050;-68
2022/04/30 06:19:53;;;;;;;1.77;1.67;;;;;;;14.49;63.08;101868.56;5102021;28;20434;-68
2022/04/30 06:22:19;;;;;;;1.67;0.95;;;;;;;14.52;63.73;101862.41;5099408;28;20020;-69
2022/04/30 06:24:44;;;;;;;1.08;0.85;;;;;;;14.55;62.83;101874.50;5095886;28;20080;-67
2022/04/30 06:27:10;;;;;;;1.23;0.77;;;;;;;14.40;62.68;101876.09;5094849;28;20073;-69
2022/04/30 06:29:35;;;;;;;0.90;0.60;;;;;;;14.29;63.93;101877.72;5096675;28;20047;-68
2022/04/30 06:32:02;;;;;;;2.30;0.82;;;;;;;14.24;64.91;101878.75;5105446;28;20035;-68
2022/04/30 06:34:27;;;;;;;0.82;0.60;;;;;;;14.21;65.02;101882.16;5111918;28;20552;-67
2022/04/30 06:36:52;;;;;;;1.65;0.65;;;;;;;14.16;66.20;101882.41;5109460;28;20130;-68
2022/04/30 06:39:18;;;;;;;1.42;0.80;;;;;;;14.19;66.07;101881.72;5112689;28;20028;-68
2022/04/30 06:41:43;;;;;;;0.82;0.70;;;;;;;14.22;66.03;101880.25;5111053;28;20504;-68
2022/04/30 06:44:11;;;;;;;1.67;0.93;;;;;;;14.29;65.84;101872.31;5085336;28;20036;-68
2022/04/30 06:46:37;;;;;;;1.08;0.77;;;;;;;14.22;67.19;101875.63;5111597;28;20031;-68
2022/04/30 06:49:02;;;;;;;1.42;0.57;;;;;;;14.23;66.74;101879.88;5112199;28;20032;-68
2022/04/30 06:51:28;;;;;;;1.35;0.73;;;;;;;14.24;66.42;101876.06;5093872;28;20032;-67
2022/04/30 06:59:22;;;;;;;1.17;0.60;;;;;;;14.11;67.00;101874.53;5112111;28;20411;-68
2022/04/30 07:02:01;;;;;;;1.02;0.50;;;;;;;14.23;66.70;101869.03;5108442;28;20042;-67
2022/04/30 07:04:29;;;;;;;0.95;0.60;;;;;;;14.22;67.15;101877.53;5108728;28;20039;-68
2022/04/30 07:06:55;;;;;;;5.25;0.45;;;;;;;14.34;67.14;101875.53;5111510;28;20047;-69
2022/04/30 07:09:21;;;;;;;0.95;0.88;;;;;;;14.43;65.86;101868.03;5112247;28;20027;-67
2022/04/30 07:11:46;;;;;;;3.90;0.95;;;;;;;14.44;65.00;101866.88;5106005;28;20041;-67
2022/04/30 07:14:12;;;;;;;0.98;0.40;;;;;;;14.51;66.05;101865.47;5103689;28;20107;-67
2022/04/30 07:16:38;;;;;;;0.65;0.40;;;;;;;14.60;65.09;101869.59;5111746;28;20552;-68
2022/04/30 07:19:03;;;;;;;0.80;0.45;;;;;;;14.80;63.99;101865.00;5110623;28;20050;-68
2022/04/30 07:21:31;;;;;;;1.42;0.57;;;;;;;14.67;65.02;101867.06;5107944;28;20036;-67
2022/04/30 07:23:57;;;;;;;1.55;0.40;;;;;;;14.81;64.27;101866.56;5110096;28;20034;-67
2022/04/30 07:26:23;;;;;;;1.17;0.57;;;;;;;14.74;64.16;101861.78;5096488;28;20044;-69
2022/04/30 07:28:49;;;;;;;0.28;0.28;;;;;;;15.03;63.81;101864.00;5071194;28;20097;-68
2022/04/30 07:31:14;;;;;;;0.45;0.40;;;;;;;15.14;61.35;101867.72;5103926;28;20034;-68
2022/04/30 07:33:40;;;;;;;0.60;0.40;;;;;;;15.08;62.23;101871.84;5098573;28;20028;-69
2022/04/30 07:36:06;;;;;;;0.88;0.60;;;;;;;15.18;62.48;101860.44;5101740;28;20081;-68
2022/04/30 07:38:32;;;;;;;3.70;0.77;;;;;;;15.12;63.05;101867.28;5098262;28;20035;-68
2022/04/30 07:40:57;;;;;;;0.70;0.45;;;;;;;15.14;62.86;101869.63;5107404;28;20067;-67
2022/04/30 07:43:23;;;;;;;1.10;0.40;;;;;;;15.05;61.19;101871.78;5100662;28;20032;-67
2022/04/30 07:45:48;;;;;;;0.40;0.25;;;;;;;14.96;61.27;101868.47;5103789;28;20032;-67
2022/04/30 07:48:14;;;;;;;1.40;0.40;;;;;;;15.28;60.95;101869.94;5097118;28;20032;-68
2022/04/30 07:50:43;;;;;;;0.88;0.57;;;;;;;15.17;61.97;101868.94;5102698;27;20028;-68
2022/04/30 07:53:09;;;;;;;0.43;0.43;;;;;;;15.22;62.75;101869.44;5097006;28;20126;-68
2022/04/30 07:55:35;;;;;;;0.50;0.30;;;;;;;15.56;62.46;101867.06;5103874;28;20107;-71
2022/04/30 07:58:02;;;;;;;1.00;0.40;;;;;;;15.65;60.95;101867.63;5097065;28;20031;-69
2022/04/30 08:00:28;;;;;;;2.08;0.52;;;;;;;15.53;60.22;101876.69;5093541;28;20032;-68
2022/04/30 08:02:55;;;;;;;0.77;0.47;;;;;;;15.58;61.86;101875.63;5106783;28;20042;-68
2022/04/30 08:05:21;;;;;;;0.75;0.50;;;;;;;15.74;61.15;101868.97;5108474;28;20043;-68
2022/04/30 08:07:46;;;;;;;0.60;0.60;;;;;;;16.11;60.40;101872.75;5106865;28;20087;-67
2022/04/30 08:10:12;;;;;;;0.70;0.30;;;;;;;16.39;58.35;101874.38;5104722;28;20119;-69
2022/04/30 08:12:37;;;;;;;0.68;0.40;;;;;;;16.59;57.65;101867.75;5094283;28;20031;-69
2022/04/30 08:15:03;;;;;;;2.50;0.52;;;;;;;16.63;58.08;101874.00;5098017;28;20035;-69
2022/04/30 08:17:29;;;;;;;0.22;0.22;;;;;;;16.55;56.35;101872.34;5106352;28;20130;-69
2022/04/30 08:19:55;;;;;;;0.40;0.40;;;;;;;16.21;57.31;101869.44;5095690;28;20019;-70
2022/04/30 08:22:21;;;;;;;0.73;0.60;;;;;;;16.54;55.79;101874.28;5105140;28;20040;-71
2022/04/30 08:24:46;;;;;;;0.40;0.28;;;;;;;16.44;55.68;101874.06;5102592;28;20073;-70
2022/04/30 08:27:12;;;;;;;0.47;0.40;;;;;;;16.50;56.08;101876.16;5101196;28;20032;-69
2022/04/30 08:29:38;;;;;;;0.40;0.32;;;;;;;16.33;56.29;101873.91;5104481;28;20024;-69
2022/04/30 08:32:04;;;;;;;0.73;0.40;;;;;;;16.24;56.44;101867.91;5105467;28;20019;-69
2022/04/30 08:34:30;;;;;;;0.65;0.28;;;;;;;16.35;56.47;101860.75;5110112;28;20046;-69
2022/04/30 08:36:55;;;;;;;0.63;0.32;;;;;;;16.59;56.74;101868.53;5103015;28;20027;-69
2022/04/30 08:39:21;;;;;;;1.60;0.65;;;;;;;16.84;56.13;101864.22;5105823;28;20039;-69
2022/04/30 08:41:46;;;;;;;0.80;0.40;;;;;;;16.83;55.75;101868.13;5104849;28;20039;-69
2022/04/30 08:44:16;;;;;;;0.70;0.43;;;;;;;16.93;55.20;101863.97;5106006;28;20035;-69
2022/04/30 08:46:43;;;;;;;0.75;0.38;;;;;;;17.14;55.80;101866.97;5099311;28;20039;-69
2022/04/30 08:49:09;;;;;;;0.55;0.55;;;;;;;16.93;56.27;101861.25;5101796;28;20034;-69
2022/04/30 08:51:35;;;;;;;1.73;0.70;;;;;;;16.86;55.21;101863.88;5086366;28;20411;-69
2022/04/30 08:54:01;;;;;;;4.53;0.40;;;;;;;16.78;56.42;101859.50;5109273;28;20023;-69
2022/04/30 08:56:26;;;;;;;4.60;0.50;;;;;;;16.91;56.06;101855.41;5107183;28;20082;-69
2022/04/30 08:59:04;;;;;;;0.47;0.38;;;;;;;16.95;55.82;101861.66;5106773;28;20395;-69
2022/04/30 09:01:31;;;;;;;0.57;0.35;;;;;;;17.17;55.18;101858.84;5107461;28;20080;-69
2022/04/30 09:03:56;;;;;;;1.30;0.60;;;;;;;16.90;56.38;101857.31;5110380;28;20030;-69
2022/04/30 09:06:24;;;;;;;1.25;0.32;;;;;;;17.13;55.55;101862.69;5112541;28;20032;-69
2022/04/30 09:08:51;;;;;;;1.90;0.70;;;;;;;17.34;55.35;101857.53;5097375;28;20027;-69
2022/04/30 09:11:25;;;;;;;0.93;0.52;;;;;;;17.43;55.03;101860.75;5108175;28;20092;-69
2022/04/30 09:13:51;;;;;;;0.43;0.32;;;;;;;17.60;53.48;101851.22;5111733;28;20035;-69
2022/04/30 09:16:21;;;;;;;0.90;0.60;;;;;;;17.55;53.78;101859.75;5087995;28;20085;-69
2022/04/30 09:18:48;;;;;;;1.00;0.50;;;;;;;17.39;52.53;101851.75;5108044;28;20503;-69
2022/04/30 09:21:14;;;;;;;0.32;0.32;;;;;;;17.48;53.24;101849.53;5109442;28;20327;-68
2022/04/30 09:23:40;;;;;;;1.10;0.75;;;;;;;17.37;53.75;101853.25;5107755;28;20023;-69
2022/04/30 09:26:06;;;;;;;1.30;0.57;;;;;;;17.53;50.83;101841.03;5110259;28;20035;-69
2022/04/30 09:28:34;;;;;;;0.57;0.30;;;;;;;17.67;52.10;101843.91;5103903;28;20032;-69
2022/04/30 09:31:07;;;;;;;1.20;0.52;;;;;;;17.73;51.71;101838.94;5103063;28;20041;-68
2022/04/30 09:33:33;;;;;;;1.10;0.47;;;;;;;18.01;52.65;101847.38;5100008;28;20358;-69
2022/04/30 09:38:51;;;;;;;0.45;0.40;;;;;;;18.16;50.18;101845.53;5104248;28;20074;-70
2022/04/30 09:41:24;;;;;;;1.08;0.50;;;;;;;17.86;49.28;101846.47;5103029;28;20445;-70
2022/04/30 09:44:05;;;;;;;0.70;0.40;;;;;;;18.12;48.92;101837.34;5105822;28;20051;-69
2022/04/30 09:46:41;;;;;;;0.85;0.60;;;;;;;18.24;48.92;101836.25;5101533;28;21887;-69
2022/04/30 09:54:39;;;;;;;1.15;0.43;;;;;;;19.13;48.51;101836.47;5109690;27;20066;-68
2022/04/30 09:57:07;;;;;;;0.32;0.30;;;;;;;19.20;47.11;101841.19;5108176;28;20059;-69
2022/04/30 09:59:40;;;;;;;0.30;0.30;;;;;;;19.26;47.46;101837.69;5112111;28;20027;-71
2022/04/30 10:02:07;;;;;;;2.80;0.38;;;;;;;19.18;46.71;101838.06;5108656;28;20432;-70
2022/04/30 10:04:34;;;;;;;1.38;0.57;;;;;;;19.35;45.30;101829.97;5097949;28;20035;-69
2022/04/30 10:07:01;;;;;;;0.38;0.20;;;;;;;19.44;44.91;101829.59;5098518;27;20039;-70
2022/04/30 10:09:46;;;;;;;0.35;0.20;;;;;;;19.69;42.43;101824.97;5107227;28;20047;-69
2022/04/30 10:12:24;;;;;;;0.20;0.20;;;;;;;19.94;40.65;101820.31;5100872;28;20062;-69
2022/04/30 10:15:11;;;;;;;0.22;0.15;;;;;;;20.28;40.34;101823.50;5097924;28;20062;-69
2022/04/30 10:17:41;;;;;;;0.00;0.00;;;;;;;20.35;40.69;101821.53;5104390;28;20117;-68
2022/04/30 10:20:18;;;;;;;0.40;0.20;;;;;;;20.50;39.61;101814.06;5104217;28;20046;-69
2022/04/30 10:22:54;;;;;;;0.25;0.10;;;;;;;20.41;40.90;101822.69;5104764;28;20035;-69
2022/04/30 10:25:46;;;;;;;0.30;0.20;;;;;;;20.43;39.46;101828.56;5109536;28;20100;-69
2022/04/30 10:28:15;;;;;;;0.17;0.17;;;;;;;20.49;40.93;101818.00;5106578;28;20063;-69
2022/04/30 10:30:41;;;;;;;0.10;0.10;;;;;;;20.36;39.21;101817.59;5109808;28;20414;-71
2022/04/30 10:33:07;;;;;;;0.13;0.10;;;;;;;20.96;39.77;101809.28;5109642;28;20063;-69
2022/04/30 10:35:37;;;;;;;0.25;0.10;;;;;;;21.18;39.47;101813.50;5104837;28;20201;-68
2022/04/30 10:38:19;;;;;;;0.30;0.13;;;;;;;21.10;38.78;101806.50;5105911;28;20462;-69
2022/04/30 10:40:48;;;;;;;0.17;0.10;;;;;;;20.75;38.90;101805.81;5102086;28;20044;-69
2022/04/30 10:43:32;;;;;;;0.35;0.28;;;;;;;20.95;38.53;101804.97;5103111;28;20032;-69
2022/04/30 10:46:02;;;;;;;0.20;0.10;;;;;;;20.75;38.44;101801.09;5103975;28;20459;-70
2022/04/30 10:48:28;;;;;;;0.45;0.10;;;;;;;20.40;39.01;101796.50;5102420;28;20564;-71
2022/04/30 10:51:05;;;;;;;0.15;0.05;;;;;;;20.26;40.16;101798.47;5103633;28;20497;-69
2022/04/30 10:53:32;;;;;;;0.20;0.20;;;;;;;20.12;39.51;101796.50;5097988;28;20124;-68
2022/04/30 10:55:59;;;;;;;0.50;0.20;;;;;;;20.47;39.37;101790.25;5102658;28;20039;-69
2022/04/30 10:58:25;;;;;;;0.45;0.20;;;;;;;20.37;39.16;101786.34;5098995;28;20031;-71
2022/04/30 11:00:51;;;;;;;0.10;0.05;;;;;;;20.46;39.98;101794.16;5101906;28;20272;-67
2022/04/30 11:03:17;;;;;;;0.57;0.30;;;;;;;20.40;39.99;101782.81;5099940;28;20124;-69
2022/04/30 11:05:43;;;;;;;3.33;0.25;;;;;;;20.33;38.56;101779.31;5093330;27;20062;-67
2022/04/30 11:08:09;;;;;;;0.47;0.30;;;;;;;20.59;39.61;101784.34;5097060;28;20039;-69
2022/04/30 11:10:34;;;;;;;0.20;0.20;;;;;;;20.71;39.76;101785.88;5097634;28;20046;-68
2022/04/30 11:13:07;;;;;;;0.20;0.20;;;;;;;20.76;39.97;101785.47;5106501;28;20737;-69
2022/04/30 11:15:33;;;;;;;0.30;0.30;;;;;;;20.45;38.18;101787.13;5105848;27;20153;-68
2022/04/30 11:17:59;;;;;;;0.50;0.30;;;;;;;20.26;38.27;101780.13;5103483;28;20104;-67
2022/04/30 11:20:26;;;;;;;0.95;0.17;;;;;;;19.83;40.54;101775.78;5101630;28;20031;-67
2022/04/30 11:22:56;;;;;;;0.38;0.20;;;;;;;20.01;41.75;101768.38;5105107;28;20680;-68
2022/04/30 11:25:23;;;;;;;0.55;0.30;;;;;;;20.07;40.62;101775.03;5095944;27;20438;-68
2022/04/30 11:27:48;;;;;;;0.43;0.20;;;;;;;19.97;41.90;101766.81;5089953;28;20024;-70
2022/04/30 11:30:14;;;;;;;1.42;0.20;;;;;;;20.19;40.82;101762.94;5081787;28;20399;-70
2022/04/30 11:32:39;;;;;;;0.30;0.30;;;;;;;19.99;41.47;101767.19;5103709;27;20646;-68
2022/04/30 11:35:05;;;;;;;0.25;0.25;;;;;;;19.75;41.88;101760.53;5104286;28;20047;-68
2022/04/30 11:37:38;;;;;;;0.32;0.10;;;;;;;19.70;40.93;101763.69;5106571;28;20038;-68
2022/04/30 11:40:04;;;;;;;0.52;0.20;;;;;;;19.92;41.13;101765.22;5100842;28;20044;-71
2022/04/30 11:42:30;;;;;;;1.15;0.30;;;;;;;19.88;40.73;101767.19;5100693;28;20036;-67
2022/04/30 11:44:55;;;;;;;0.10;0.10;;;;;;;19.87;41.06;101756.63;5097596;28;20028;-69
2022/04/30 11:47:21;;;;;;;0.47;0.20;;;;;;;20.11;41.32;101762.09;5101362;28;20114;-68
2022/04/30 11:49:47;;;;;;;0.15;0.15;;;;;;;20.13;41.92;101769.94;5103846;27;20585;-69
2022/04/30 11:52:14;;;;;;;0.90;0.60;;;;;;;20.19;41.55;101758.22;5081199;28;20532;-67
2022/04/30 11:54:41;;;;;;;0.68;0.30;;;;;;;20.00;41.23;101760.53;5102317;28;20067;-67
2022/04/30 11:57:08;;;;;;;0.20;0.20;;;;;;;19.99;42.36;101748.03;5098040;27;20069;-68
2022/04/30 11:59:36;;;;;;;0.45;0.20;;;;;;;19.79;41.61;101758.59;5098808;28;20486;-71
2022/04/30 12:02:07;;;;;;;1.45;0.50;;;;;;;19.68;40.72;101758.59;5081722;28;20512;-69
2022/04/30 12:04:35;;;;;;;0.35;0.25;;;;;;;20.13;41.14;101756.25;5098655;28;20389;-69